Time;durP1;ratioP1;P1;durP2;ratioP2;P2;SDS_P1;SDS_P2;PMS_P1;PMS_P2;Temp;Humidity;BMP_temperature;BMP_pressure;BME280_temperature;BME280_humidity;BME280_pressure;Samples;Min_cycle;Max_cycle;Signal;HPM_P1;HPM_P2
2022/09/05 00:02:01;;;;;;;;;;;;;;;23.30;65.79;101610.13;7403559;19;1591;-60
2022/09/05 00:04:35;;;;;;;;;;;;;;;23.26;66.07;101600.59;7404378;19;1594;-61
2022/09/05 00:07:08;;;;;;;;;;;;;;;23.25;66.00;101604.28;7404447;19;1638;-60
2022/09/05 00:09:54;;;;;;;;;;;;;;;23.28;66.04;101601.31;7402563;19;1849;-61
2022/09/05 00:12:22;;;;;;;;;;;;;;;23.31;66.01;101606.41;7404326;19;1535;-61
2022/09/05 00:14:58;;;;;;;;;;;;;;;23.32;65.74;101613.53;7404215;19;1007;-61
2022/09/05 00:17:35;;;;;;;;;;;;;;;23.27;65.76;101601.44;7404027;19;1515;-60
2022/09/05 00:20:11;;;;;;;;;;;;;;;23.32;65.99;101616.22;7404163;19;1781;-60
2022/09/05 00:22:45;;;;;;;;;;;;;;;23.28;65.83;101595.91;7400613;19;1662;-60
2022/09/05 00:25:25;;;;;;;;;;;;;;;23.28;65.67;101600.44;7402308;19;1638;-60
2022/09/05 00:27:57;;;;;;;;;;;;;;;23.32;65.87;101596.50;7403004;19;1496;-60
2022/09/05 00:30:26;;;;;;;;;;;;;;;23.27;65.50;101605.00;7399465;19;1859;-60
2022/09/05 00:33:07;;;;;;;;;;;;;;;23.28;65.79;101597.75;7400926;19;1543;-60
2022/09/05 00:35:51;;;;;;;;;;;;;;;23.27;65.84;101604.16;7401842;19;1610;-60
2022/09/05 00:38:21;;;;;;;;;;;;;;;23.29;65.62;101602.16;7401876;19;1730;-68
2022/09/05 00:40:51;;;;;;;;;;;;;;;23.28;65.90;101612.09;7403665;19;1546;-68
2022/09/05 00:43:21;;;;;;;;;;;;;;;23.33;65.69;101608.97;7400208;19;1809;-67
2022/09/05 00:45:52;;;;;;;;;;;;;;;23.30;65.60;101620.91;7401981;19;1629;-67
2022/09/05 00:48:27;;;;;;;;;;;;;;;23.32;65.96;101618.91;7399703;19;1872;-67
2022/09/05 00:50:59;;;;;;;;;;;;;;;23.27;65.73;101614.94;7405409;19;1847;-68
2022/09/05 00:53:30;;;;;;;;;;;;;;;23.25;65.92;101625.88;7409572;19;1512;-68
2022/09/05 00:56:04;;;;;;;;;;;;;;;23.29;65.50;101623.75;7408695;19;1556;-68
2022/09/05 00:58:42;;;;;;;;;;;;;;;23.32;65.85;101629.72;7408823;19;1670;-68
2022/09/05 01:01:26;;;;;;;;;;;;;;;23.27;65.82;101612.25;7407509;19;1539;-68
2022/09/05 01:04:04;;;;;;;;;;;;;;;23.27;65.79;101615.78;7408430;19;1773;-68
2022/09/05 01:06:38;;;;;;;;;;;;;;;23.23;65.79;101608.97;7409005;19;1519;-68
2022/09/05 01:09:14;;;;;;;;;;;;;;;23.27;65.79;101621.19;7408818;19;1859;-68
2022/09/05 01:11:58;;;;;;;;;;;;;;;23.28;65.85;101627.44;7408757;19;1789;-68
2022/09/05 01:14:33;;;;;;;;;;;;;;;23.26;65.75;101638.38;7405873;19;1716;-68
2022/09/05 01:17:19;;;;;;;;;;;;;;;23.26;65.69;101622.19;7410166;19;1618;-68
2022/09/05 01:19:55;;;;;;;;;;;;;;;23.27;65.75;101623.88;7410309;19;1571;-67
2022/09/05 01:22:35;;;;;;;;;;;;;;;23.27;65.58;101623.88;7409422;19;1382;-68
2022/09/05 01:25:18;;;;;;;;;;;;;;;23.29;65.84;101623.75;7410163;19;1698;-68
2022/09/05 01:27:59;;;;;;;;;;;;;;;23.28;65.77;101622.03;7408311;19;1770;-68
2022/09/05 01:30:32;;;;;;;;;;;;;;;23.25;65.81;101623.19;7408326;19;1846;-68
2022/09/05 01:33:04;;;;;;;;;;;;;;;23.25;65.86;101612.38;7408923;19;1646;-68
2022/09/05 01:35:43;;;;;;;;;;;;;;;23.27;65.75;101620.34;7409004;19;1543;-68
2022/09/05 01:38:15;;;;;;;;;;;;;;;23.25;65.66;101614.25;7408851;19;1638;-67
2022/09/05 01:40:47;;;;;;;;;;;;;;;23.25;65.56;101615.09;7409954;19;1055;-68
2022/09/05 01:43:22;;;;;;;;;;;;;;;23.29;65.81;101613.81;7408669;19;1690;-68
2022/09/05 01:45:52;;;;;;;;;;;;;;;23.25;65.53;101619.63;7409720;19;1658;-68
2022/09/05 01:48:29;;;;;;;;;;;;;;;23.24;65.77;101608.00;7408703;19;1564;-68
2022/09/05 01:51:02;;;;;;;;;;;;;;;23.24;65.52;101616.09;7408245;19;1839;-68
2022/09/05 01:53:37;;;;;;;;;;;;;;;23.20;65.50;101601.19;7407403;19;1749;-61
2022/09/05 01:56:18;;;;;;;;;;;;;;;23.25;65.81;101617.78;7408745;19;929;-61
2022/09/05 01:58:57;;;;;;;;;;;;;;;23.21;65.73;101606.41;7409445;19;1651;-62
2022/09/05 02:01:29;;;;;;;;;;;;;;;23.25;65.54;101617.78;7382792;19;3419;-38
2022/09/05 02:04:04;;;;;;;;;;;;;;;23.25;65.79;101616.94;7406361;19;1815;-38
2022/09/05 02:06:43;;;;;;;;;;;;;;;23.27;65.59;101607.69;7401269;19;2017;-37
2022/09/05 02:09:33;;;;;;;;;;;;;;;23.23;65.51;101603.56;7405257;19;1922;-38
2022/09/05 02:12:04;;;;;;;;;;;;;;;23.24;65.77;101624.19;7403525;19;1769;-37
2022/09/05 02:14:40;;;;;;;;;;;;;;;23.22;65.49;101596.50;7402240;19;1662;-38
2022/09/05 02:17:12;;;;;;;;;;;;;;;23.22;65.83;101604.59;7404330;19;1752;-37
2022/09/05 02:19:46;;;;;;;;;;;;;;;23.21;65.66;101610.97;7404325;19;2251;-38
2022/09/05 02:22:19;;;;;;;;;;;;;;;23.22;65.73;101608.13;7404194;19;1899;-38
2022/09/05 02:24:50;;;;;;;;;;;;;;;23.21;65.71;101597.47;7402487;19;1673;-38
2022/09/05 02:27:22;;;;;;;;;;;;;;;23.23;65.82;101608.97;7404753;19;2558;-37
2022/09/05 02:29:59;;;;;;;;;;;;;;;23.25;65.63;101608.84;7402175;19;2108;-38
2022/09/05 02:32:31;;;;;;;;;;;;;;;23.22;65.56;101612.69;7404056;19;1752;-38
2022/09/05 02:35:02;;;;;;;;;;;;;;;23.21;65.74;101605.56;7402255;19;1892;-38
2022/09/05 02:37:37;;;;;;;;;;;;;;;23.21;65.77;101605.56;7402824;19;1843;-38
2022/09/05 02:40:11;;;;;;;;;;;;;;;23.21;65.40;101597.47;7404079;19;1763;-38
2022/09/05 02:42:43;;;;;;;;;;;;;;;23.19;65.64;101604.88;7405129;19;1860;-38
2022/09/05 02:45:22;;;;;;;;;;;;;;;23.17;65.44;101587.97;7402866;19;1765;-38
2022/09/05 02:47:53;;;;;;;;;;;;;;;23.20;65.57;101599.34;7403486;19;2008;-38
2022/09/05 02:50:31;;;;;;;;;;;;;;;23.18;65.76;101593.22;7402712;19;1880;-39
2022/09/05 02:53:00;;;;;;;;;;;;;;;23.17;65.59;101587.97;7404741;19;1779;-38
2022/09/05 02:55:33;;;;;;;;;;;;;;;23.18;65.60;101597.78;7404175;19;1020;-38
2022/09/05 02:58:10;;;;;;;;;;;;;;;23.19;65.54;101607.56;7401836;19;1836;-38
2022/09/05 03:00:46;;;;;;;;;;;;;;;23.17;65.66;101609.56;7403106;19;1686;-38
2022/09/05 03:03:19;;;;;;;;;;;;;;;23.19;65.68;101618.34;7401221;19;1926;-38
2022/09/05 03:05:52;;;;;;;;;;;;;;;23.19;65.72;101619.19;7402350;19;1698;-38
2022/09/05 03:08:32;;;;;;;;;;;;;;;23.19;65.64;101615.66;7402103;19;1596;-38
2022/09/05 03:11:13;;;;;;;;;;;;;;;23.18;65.62;101622.06;7402625;19;1862;-38
2022/09/05 03:14:05;;;;;;;;;;;;;;;23.20;65.64;101626.31;7402519;19;1950;-38
2022/09/05 03:16:48;;;;;;;;;;;;;;;23.24;65.60;101645.78;7401349;19;1971;-38
2022/09/05 03:19:32;;;;;;;;;;;;;;;23.14;65.39;101609.81;7401586;19;1694;-38
2022/09/05 03:22:21;;;;;;;;;;;;;;;23.20;65.41;101631.72;7402836;19;1051;-38
2022/09/05 03:25:04;;;;;;;;;;;;;;;23.20;65.57;101636.25;7403491;19;1830;-38
2022/09/05 03:28:00;;;;;;;;;;;;;;;23.19;65.29;101631.84;7399994;19;1086;-38
2022/09/05 03:30:39;;;;;;;;;;;;;;;23.21;65.64;101635.25;7399265;19;1842;-39
2022/09/05 03:33:30;;;;;;;;;;;;;;;23.17;65.64;101633.84;7402758;19;1596;-38
2022/09/05 03:36:19;;;;;;;;;;;;;;;23.19;65.61;101645.34;7402593;19;1781;-38
2022/09/05 03:39:11;;;;;;;;;;;;;;;23.19;65.38;101656.97;7400834;19;1760;-38
2022/09/05 03:41:53;;;;;;;;;;;;;;;23.16;65.27;101640.25;7402537;19;1766;-38
2022/09/05 03:44:27;;;;;;;;;;;;;;;23.17;65.62;101652.72;7402502;19;1015;-38
2022/09/05 03:47:09;;;;;;;;;;;;;;;23.18;65.36;101652.59;7399794;19;1706;-37
2022/09/05 03:49:54;;;;;;;;;;;;;;;23.15;65.30;101655.56;7400331;19;1661;-38
2022/09/05 03:52:28;;;;;;;;;;;;;;;23.15;65.47;101666.34;7403267;19;1633;-37
2022/09/05 03:55:13;;;;;;;;;;;;;;;23.15;65.42;101652.00;7401651;19;1854;-38
2022/09/05 03:57:55;;;;;;;;;;;;;;;23.18;65.59;101665.25;7399313;19;1820;-38
2022/09/05 04:00:25;;;;;;;;;;;;;;;23.16;65.44;101669.91;7400646;19;1640;-38
2022/09/05 04:03:06;;;;;;;;;;;;;;;23.13;65.17;101668.34;7398909;19;1818;-38
2022/09/05 04:05:38;;;;;;;;;;;;;;;23.15;65.26;101670.91;7399819;19;1694;-38
2022/09/05 04:08:27;;;;;;;;;;;;;;;23.17;65.35;101677.00;7400613;19;1777;-38
2022/09/05 04:11:01;;;;;;;;;;;;;;;23.15;65.52;101673.59;7401274;19;1856;-38
2022/09/05 04:13:32;;;;;;;;;;;;;;;23.18;65.59;101684.13;7401289;19;1846;-38
2022/09/05 04:16:08;;;;;;;;;;;;;;;23.10;65.50;101683.94;7401506;19;1840;-38
2022/09/05 04:18:39;;;;;;;;;;;;;;;23.15;65.44;101704.13;7400177;19;1656;-38
2022/09/05 04:21:10;;;;;;;;;;;;;;;23.14;65.53;101686.25;7401268;19;1059;-38
2022/09/05 04:23:47;;;;;;;;;;;;;;;23.12;65.26;101681.97;7398844;19;1787;-38
2022/09/05 04:26:24;;;;;;;;;;;;;;;23.14;65.61;101679.97;7406125;19;1680;-38
2022/09/05 04:28:55;;;;;;;;;;;;;;;23.14;65.56;101682.66;7406855;19;1588;-38
2022/09/05 04:31:31;;;;;;;;;;;;;;;23.15;65.42;101687.94;7404913;19;1851;-38
2022/09/05 04:34:06;;;;;;;;;;;;;;;23.14;65.15;101693.47;7407371;19;977;-38
2022/09/05 04:36:36;;;;;;;;;;;;;;;23.16;65.27;101694.22;7407851;19;1881;-38
2022/09/05 04:39:09;;;;;;;;;;;;;;;23.16;65.33;101696.91;7405726;19;1821;-37
2022/09/05 04:41:44;;;;;;;;;;;;;;;23.16;65.13;101697.75;7407048;19;1713;-38
2022/09/05 04:44:15;;;;;;;;;;;;;;;23.12;65.30;101687.34;7408135;19;1924;-39
2022/09/05 04:46:46;;;;;;;;;;;;;;;23.19;65.35;101702.84;7408204;19;1020;-37
2022/09/05 04:49:16;;;;;;;;;;;;;;;23.15;65.37;101690.63;7407764;19;2294;-38
2022/09/05 04:51:53;;;;;;;;;;;;;;;23.10;65.25;101678.56;7405713;19;2329;-37
2022/09/05 04:54:30;;;;;;;;;;;;;;;23.13;65.51;101689.06;7405796;19;1751;-38
2022/09/05 04:57:04;;;;;;;;;;;;;;;23.10;65.56;101689.34;7406249;19;1681;-38
2022/09/05 04:59:40;;;;;;;;;;;;;;;23.10;65.31;101689.34;7407681;19;1008;-38
2022/09/05 05:02:16;;;;;;;;;;;;;;;23.15;65.19;101685.22;7403327;19;1831;-38
2022/09/05 05:04:45;;;;;;;;;;;;;;;23.17;65.19;101690.50;7405685;19;1745;-38
2022/09/05 05:07:19;;;;;;;;;;;;;;;23.21;65.23;101700.00;7407847;19;1040;-38
2022/09/05 05:09:51;;;;;;;;;;;;;;;23.24;65.30;101710.53;7405799;19;1744;-38
2022/09/05 05:12:26;;;;;;;;;;;;;;;23.25;65.05;101709.53;7404373;19;1841;-38
2022/09/05 05:14:59;;;;;;;;;;;;;;;23.23;65.13;101700.72;7407983;19;1017;-38
2022/09/05 05:17:30;;;;;;;;;;;;;;;23.26;64.85;101700.47;7406418;19;2053;-38
2022/09/05 05:20:03;;;;;;;;;;;;;;;23.32;64.79;101704.44;7406198;19;1938;-38
2022/09/05 05:22:31;;;;;;;;;;;;;;;23.31;64.99;101705.41;7406966;19;1621;-38
2022/09/05 05:25:02;;;;;;;;;;;;;;;23.29;64.94;101704.72;7406659;19;1609;-39
2022/09/05 05:27:39;;;;;;;;;;;;;;;23.28;64.79;101703.00;7407631;19;1031;-38
2022/09/05 05:30:09;;;;;;;;;;;;;;;23.29;64.82;101705.56;7406958;19;1044;-38
2022/09/05 05:32:39;;;;;;;;;;;;;;;23.35;64.88;101714.94;7402793;19;1850;-38
2022/09/05 05:35:10;;;;;;;;;;;;;;;23.32;64.65;101702.59;7405514;19;1775;-38
2022/09/05 05:37:43;;;;;;;;;;;;;;;23.37;64.54;101713.78;7402097;19;1753;-38
2022/09/05 05:40:13;;;;;;;;;;;;;;;23.40;64.67;101709.97;7405730;19;1814;-38
2022/09/05 05:42:44;;;;;;;;;;;;;;;23.42;64.75;101708.84;7403803;19;1806;-38
2022/09/05 05:45:18;;;;;;;;;;;;;;;23.40;64.76;101727.03;7403886;19;1933;-38
2022/09/05 05:47:49;;;;;;;;;;;;;;;23.47;64.70;101713.81;7404498;19;1765;-38
2022/09/05 05:50:24;;;;;;;;;;;;;;;23.45;64.50;101714.94;7405304;19;1706;-38
2022/09/05 05:53:16;;;;;;;;;;;;;;;23.46;64.41;101713.94;7403417;19;1851;-38
2022/09/05 05:55:59;;;;;;;;;;;;;;;23.47;64.38;101721.91;7404841;19;2313;-38
2022/09/05 05:58:36;;;;;;;;;;;;;;;23.50;64.36;101715.38;7404858;19;1961;-38
2022/09/05 06:01:25;;;;;;;;;;;;;;;23.52;64.50;101726.91;7404899;19;1896;-38
2022/09/05 06:04:16;;;;;;;;;;;;;;;23.53;64.42;101717.78;7401795;19;1968;-38
2022/09/05 06:06:55;;;;;;;;;;;;;;;23.51;64.24;101703.56;7405122;19;1747;-38
2022/09/05 06:09:39;;;;;;;;;;;;;;;23.53;64.41;101728.59;7402844;19;1679;-38
2022/09/05 06:12:22;;;;;;;;;;;;;;;23.57;64.27;101720.03;7402765;19;1842;-38
2022/09/05 06:15:09;;;;;;;;;;;;;;;23.55;64.25;101726.59;7403262;19;1811;-38
2022/09/05 06:17:53;;;;;;;;;;;;;;;23.56;64.28;101733.72;7404302;19;1904;-38
2022/09/05 06:20:40;;;;;;;;;;;;;;;23.56;64.62;101715.66;7405327;19;1788;-38
2022/09/05 06:23:23;;;;;;;;;;;;;;;23.56;64.36;101709.41;7401684;19;1854;-38
2022/09/05 06:25:59;;;;;;;;;;;;;;;23.54;64.60;101731.16;7401276;19;1938;-38
2022/09/05 06:28:32;;;;;;;;;;;;;;;23.53;64.58;101736.69;7404658;19;1678;-38
2022/09/05 06:31:13;;;;;;;;;;;;;;;23.59;64.47;101733.41;7405454;19;1851;-38
2022/09/05 06:33:52;;;;;;;;;;;;;;;23.55;64.39;101732.00;7403953;19;1824;-38
2022/09/05 06:36:29;;;;;;;;;;;;;;;23.56;64.59;101733.72;7403823;19;1931;-38
2022/09/05 06:39:07;;;;;;;;;;;;;;;23.56;64.48;101742.66;7402479;19;1901;-38
2022/09/05 06:41:42;;;;;;;;;;;;;;;23.58;64.26;101740.66;7402969;19;1686;-38
2022/09/05 06:44:25;;;;;;;;;;;;;;;23.63;64.46;101734.81;7404715;19;1678;-39
2022/09/05 06:46:57;;;;;;;;;;;;;;;23.59;64.43;101755.00;7403983;19;1256;-38
2022/09/05 06:49:28;;;;;;;;;;;;;;;23.58;64.41;101734.41;7402618;19;1667;-38
2022/09/05 06:52:18;;;;;;;;;;;;;;;23.62;64.61;101754.75;7402898;19;1864;-38
2022/09/05 06:55:06;;;;;;;;;;;;;;;23.59;64.57;101738.81;7401758;19;1581;-38
2022/09/05 06:57:56;;;;;;;;;;;;;;;23.62;64.67;101735.84;7402087;19;1726;-38
2022/09/05 07:00:26;;;;;;;;;;;;;;;23.62;64.57;101742.09;7402491;19;1840;-39
2022/09/05 07:03:21;;;;;;;;;;;;;;;23.65;64.53;101737.41;7402346;19;1413;-38
2022/09/05 07:05:54;;;;;;;;;;;;;;;23.68;64.61;101745.22;7403384;19;1674;-38
2022/09/05 07:08:29;;;;;;;;;;;;;;;23.69;64.61;101738.81;7403488;19;1764;-39
2022/09/05 07:11:00;;;;;;;;;;;;;;;23.64;64.59;101747.34;7403709;19;1023;-38
2022/09/05 07:13:34;;;;;;;;;;;;;;;23.63;64.32;101756.44;7401425;19;1923;-38
2022/09/05 07:16:08;;;;;;;;;;;;;;;23.63;64.73;101751.03;7403135;19;1664;-38
2022/09/05 07:18:44;;;;;;;;;;;;;;;23.64;64.51;101752.75;7402571;19;1672;-38
2022/09/05 07:21:18;;;;;;;;;;;;;;;23.63;64.66;101757.31;7403090;19;1008;-38
2022/09/05 07:23:50;;;;;;;;;;;;;;;23.65;64.64;101762.53;7400269;19;1838;-39
2022/09/05 07:26:20;;;;;;;;;;;;;;;23.63;64.54;101751.91;7401245;19;1791;-38
2022/09/05 07:28:51;;;;;;;;;;;;;;;23.63;64.63;101754.59;7401023;19;1677;-38
2022/09/05 07:31:22;;;;;;;;;;;;;;;23.64;64.56;101747.34;7400932;19;1852;-38
2022/09/05 07:34:07;;;;;;;;;;;;;;;23.63;64.76;101753.72;7402067;19;1666;-38
2022/09/05 07:36:37;;;;;;;;;;;;;;;23.65;64.84;101759.00;7400207;19;1769;-38
2022/09/05 07:39:09;;;;;;;;;;;;;;;23.68;64.56;101767.69;7400260;19;1678;-38
2022/09/05 07:41:38;;;;;;;;;;;;;;;23.64;64.63;101752.75;7402040;19;1675;-38
2022/09/05 07:44:10;;;;;;;;;;;;;;;23.63;64.73;101762.72;7403016;19;1010;-38
2022/09/05 07:46:40;;;;;;;;;;;;;;;23.62;64.83;101760.97;7402134;19;1103;-38
2022/09/05 07:49:13;;;;;;;;;;;;;;;23.62;64.75;101750.19;7399050;19;1683;-38
2022/09/05 07:51:49;;;;;;;;;;;;;;;23.62;64.95;101760.16;7402586;19;1852;-38
2022/09/05 07:54:22;;;;;;;;;;;;;;;23.59;64.73;101766.66;7401348;19;1812;-38
2022/09/05 07:56:53;;;;;;;;;;;;;;;23.63;64.89;101748.34;7401205;19;1763;-38
2022/09/05 07:59:21;;;;;;;;;;;;;;;23.64;64.91;101760.84;7399896;19;1825;-38
2022/09/05 08:01:51;;;;;;;;;;;;;;;23.62;64.98;101760.16;7401233;19;1590;-38
2022/09/05 08:04:27;;;;;;;;;;;;;;;23.65;64.90;101767.94;7402181;19;940;-38
2022/09/05 08:06:58;;;;;;;;;;;;;;;23.62;64.64;101752.88;7401840;19;1780;-38
2022/09/05 08:09:28;;;;;;;;;;;;;;;23.65;64.67;101754.44;7399569;19;1738;-38
2022/09/05 08:11:59;;;;;;;;;;;;;;;23.65;64.74;101751.75;7399339;19;1859;-38
2022/09/05 08:14:35;;;;;;;;;;;;;;;23.64;64.61;101763.56;7401006;19;1036;-38
2022/09/05 08:17:07;;;;;;;;;;;;;;;23.63;64.92;101761.84;7399914;19;1796;-38
2022/09/05 08:19:49;;;;;;;;;;;;;;;23.63;64.94;101741.09;7400833;19;1647;-38
2022/09/05 08:22:22;;;;;;;;;;;;;;;23.60;65.05;101744.06;7401359;19;965;-38
2022/09/05 08:24:55;;;;;;;;;;;;;;;23.65;64.86;101762.53;7401095;19;1027;-38
2022/09/05 08:27:26;;;;;;;;;;;;;;;23.64;64.91;101752.75;7401453;19;1794;-38
2022/09/05 08:29:58;;;;;;;;;;;;;;;23.62;64.97;101747.47;7399755;19;1775;-38
2022/09/05 08:32:32;;;;;;;;;;;;;;;23.59;65.17;101755.84;7399259;19;1856;-38
2022/09/05 08:35:06;;;;;;;;;;;;;;;23.63;64.89;101761.84;7399764;19;1722;-38
2022/09/05 08:37:35;;;;;;;;;;;;;;;23.61;64.88;101753.88;7397124;19;1945;-38
2022/09/05 08:40:07;;;;;;;;;;;;;;;23.60;65.12;101741.38;7400534;19;1785;-38
2022/09/05 08:42:39;;;;;;;;;;;;;;;23.62;65.04;101743.94;7398956;19;1666;-38
2022/09/05 08:45:14;;;;;;;;;;;;;;;23.65;64.79;101754.44;7398418;19;1695;-38
2022/09/05 08:47:46;;;;;;;;;;;;;;;23.62;65.11;101743.94;7399241;19;1098;-38
2022/09/05 08:50:27;;;;;;;;;;;;;;;23.62;65.15;101739.38;7399271;19;1982;-38
2022/09/05 08:53:00;;;;;;;;;;;;;;;23.63;64.81;101751.03;7395940;19;1937;-38
2022/09/05 08:55:35;;;;;;;;;;;;;;;23.62;65.29;101741.25;7400596;19;1015;-38
2022/09/05 08:58:12;;;;;;;;;;;;;;;23.65;65.16;101746.34;7398463;19;1917;-38
2022/09/05 09:00:44;;;;;;;;;;;;;;;23.63;64.90;101746.50;7398889;19;1553;-38
2022/09/05 09:03:21;;;;;;;;;;;;;;;23.62;65.22;101747.47;7397351;19;1636;-38
2022/09/05 09:06:04;;;;;;;;;;;;;;;23.68;64.99;101751.47;7398606;19;1770;-38
2022/09/05 09:08:44;;;;;;;;;;;;;;;23.67;64.72;101748.91;7399349;19;2562;-38
2022/09/05 09:11:14;;;;;;;;;;;;;;;23.62;64.91;101730.44;7402352;19;1004;-38
2022/09/05 09:13:51;;;;;;;;;;;;;;;23.66;64.89;101761.56;7404820;19;1971;-38
2022/09/05 09:16:26;;;;;;;;;;;;;;;23.61;64.99;101732.25;7404132;19;1830;-38
2022/09/05 09:19:04;;;;;;;;;;;;;;;23.62;64.99;101727.75;7404959;19;1677;-38
2022/09/05 09:21:40;;;;;;;;;;;;;;;23.64;65.23;101741.94;7407036;19;1096;-38
2022/09/05 09:24:19;;;;;;;;;;;;;;;23.63;64.93;101741.09;7406117;19;1982;-38
2022/09/05 09:26:52;;;;;;;;;;;;;;;23.65;64.81;101743.63;7406529;19;1754;-38
2022/09/05 09:29:21;;;;;;;;;;;;;;;23.66;64.87;101734.56;7405866;19;2197;-38
2022/09/05 09:31:58;;;;;;;;;;;;;;;23.68;64.90;101735.25;7405148;19;1858;-38
2022/09/05 09:34:44;;;;;;;;;;;;;;;23.68;64.74;101740.66;7405558;19;1715;-38
2022/09/05 09:37:34;;;;;;;;;;;;;;;23.72;65.02;101739.38;7405639;19;1592;-38
2022/09/05 09:40:18;;;;;;;;;;;;;;;23.70;64.85;101725.19;7405648;19;1728;-38
2022/09/05 09:42:52;;;;;;;;;;;;;;;23.68;64.72;101732.56;7405525;19;1608;-38
2022/09/05 09:45:29;;;;;;;;;;;;;;;23.68;64.88;101753.31;7405107;19;1869;-38
2022/09/05 09:48:04;;;;;;;;;;;;;;;23.73;64.95;101730.28;7405706;19;1198;-38
2022/09/05 09:50:42;;;;;;;;;;;;;;;23.72;64.79;101727.75;7406059;19;1890;-38
2022/09/05 09:53:20;;;;;;;;;;;;;;;23.71;65.04;101721.47;7401040;19;1852;-38
2022/09/05 09:56:04;;;;;;;;;;;;;;;23.78;64.85;101728.03;7404934;19;979;-38
2022/09/05 09:58:54;;;;;;;;;;;;;;;23.73;64.82;101722.16;7405089;19;1927;-38
2022/09/05 10:01:28;;;;;;;;;;;;;;;23.74;64.94;101720.34;7404537;19;1923;-38
2022/09/05 10:04:08;;;;;;;;;;;;;;;23.72;64.89;101725.88;7404674;19;2354;-38
2022/09/05 10:06:54;;;;;;;;;;;;;;;23.71;64.85;101736.81;7401472;19;1763;-38
2022/09/05 10:09:31;;;;;;;;;;;;;;;23.68;64.83;101715.53;7404140;19;1748;-38
2022/09/05 10:12:14;;;;;;;;;;;;;;;23.73;65.10;101724.88;7404521;19;1852;-38
2022/09/05 10:15:04;;;;;;;;;;;;;;;23.71;64.85;101721.47;7403799;19;1032;-38
2022/09/05 10:17:44;;;;;;;;;;;;;;;23.69;65.22;101723.44;7403663;19;1762;-38
2022/09/05 10:20:22;;;;;;;;;;;;;;;23.72;64.92;101731.28;7404695;19;1585;-38
2022/09/05 10:23:14;;;;;;;;;;;;;;;23.73;64.79;101705.13;7403813;19;1004;-38
2022/09/05 10:26:03;;;;;;;;;;;;;;;23.65;65.22;101724.72;7402361;19;1343;-38
2022/09/05 10:28:39;;;;;;;;;;;;;;;23.69;65.15;101718.06;7403893;19;2011;-38
2022/09/05 10:31:15;;;;;;;;;;;;;;;23.72;64.92;101717.78;7403755;19;1957;-38
2022/09/05 10:33:49;;;;;;;;;;;;;;;23.71;65.27;101717.91;7403029;19;1867;-38
2022/09/05 10:36:24;;;;;;;;;;;;;;;23.70;64.94;101714.38;7403402;19;1068;-38
2022/09/05 10:39:07;;;;;;;;;;;;;;;23.73;65.29;101708.66;7404211;19;1108;-38
2022/09/05 10:41:48;;;;;;;;;;;;;;;23.71;65.33;101699.84;7404541;19;1036;-38
2022/09/05 10:44:18;;;;;;;;;;;;;;;23.70;65.18;101695.47;7404984;19;958;-38
2022/09/05 10:46:57;;;;;;;;;;;;;;;23.76;65.09;101713.78;7403953;19;1042;-38
2022/09/05 10:49:27;;;;;;;;;;;;;;;23.76;65.17;101691.34;7401322;19;2114;-38
2022/09/05 10:52:00;;;;;;;;;;;;;;;23.73;65.20;101692.47;7402689;19;1049;-38
2022/09/05 10:54:37;;;;;;;;;;;;;;;23.70;64.93;101687.38;7401523;19;1973;-38
2022/09/05 10:57:10;;;;;;;;;;;;;;;23.70;65.14;101684.66;7400635;19;1821;-38
2022/09/05 10:59:51;;;;;;;;;;;;;;;23.75;65.15;101701.28;7402251;19;1698;-38
2022/09/05 11:02:24;;;;;;;;;;;;;;;23.76;65.04;101681.38;7400974;19;1678;-38
2022/09/05 11:04:58;;;;;;;;;;;;;;;23.76;65.19;101684.09;7403509;19;1068;-38
2022/09/05 11:07:37;;;;;;;;;;;;;;;23.72;64.99;101673.72;7403201;19;1831;-38
2022/09/05 11:10:12;;;;;;;;;;;;;;;23.72;65.07;101674.56;7402959;19;1870;-38
2022/09/05 11:12:52;;;;;;;;;;;;;;;23.73;65.19;101670.00;7399985;19;1863;-38
2022/09/05 11:15:25;;;;;;;;;;;;;;;23.73;65.25;101665.44;7401965;19;1792;-38
2022/09/05 11:17:59;;;;;;;;;;;;;;;23.76;64.88;101675.13;7402243;19;1013;-38
2022/09/05 11:20:37;;;;;;;;;;;;;;;23.78;65.18;101663.22;7403331;19;1028;-38
2022/09/05 11:23:10;;;;;;;;;;;;;;;23.79;64.90;101667.59;7399005;19;1760;-38
2022/09/05 11:25:40;;;;;;;;;;;;;;;23.77;64.87;101656.09;7402755;19;1773;-38
2022/09/05 11:28:13;;;;;;;;;;;;;;;23.75;65.03;101647.25;7401601;19;1916;-38
2022/09/05 11:30:44;;;;;;;;;;;;;;;23.77;64.85;101666.91;7401157;19;1692;-38
2022/09/05 11:33:28;;;;;;;;;;;;;;;23.77;64.99;101639.00;7401500;19;1855;-38
2022/09/05 11:35:59;;;;;;;;;;;;;;;23.80;64.85;101650.41;7401793;19;1971;-38
2022/09/05 11:38:42;;;;;;;;;;;;;;;23.80;64.97;101628.81;7402462;19;1664;-38
2022/09/05 11:41:28;;;;;;;;;;;;;;;23.76;64.82;101630.06;7402308;19;1291;-38
2022/09/05 11:44:11;;;;;;;;;;;;;;;23.77;64.99;101634.50;7400033;19;1878;-38
2022/09/05 11:46:44;;;;;;;;;;;;;;;23.79;64.80;101631.66;7400612;19;1687;-37
2022/09/05 11:49:28;;;;;;;;;;;;;;;23.77;64.82;101612.88;7400639;19;1942;-37
2022/09/05 11:52:11;;;;;;;;;;;;;;;23.81;65.02;101627.81;7400773;19;1068;-37
2022/09/05 11:54:50;;;;;;;;;;;;;;;23.80;65.09;101645.00;7401267;19;1915;-38
2022/09/05 11:57:25;;;;;;;;;;;;;;;23.81;64.97;101626.94;7400971;19;1778;-38
2022/09/05 12:00:11;;;;;;;;;;;;;;;23.81;64.88;101627.81;7401026;19;1747;-38
2022/09/05 12:02:57;;;;;;;;;;;;;;;23.81;64.84;101611.63;7399868;19;1686;-38
2022/09/05 12:05:42;;;;;;;;;;;;;;;23.79;64.86;101615.44;7400654;19;1770;-38
2022/09/05 12:08:16;;;;;;;;;;;;;;;23.81;64.79;101617.03;7400080;19;1970;-38
2022/09/05 12:10:59;;;;;;;;;;;;;;;23.81;64.89;101606.22;7401523;19;1057;-38
2022/09/05 12:13:46;;;;;;;;;;;;;;;23.81;65.03;101618.84;7401184;19;1851;-38
2022/09/05 12:16:36;;;;;;;;;;;;;;;23.85;65.09;101608.59;7400205;19;1687;-38
2022/09/05 12:19:11;;;;;;;;;;;;;;;23.85;64.72;101603.19;7401086;19;1734;-38
2022/09/05 12:21:42;;;;;;;;;;;;;;;23.86;65.05;101605.75;7400606;19;1830;-37
2022/09/05 12:24:17;;;;;;;;;;;;;;;23.81;64.71;101605.34;7400792;19;1689;-38
2022/09/05 12:26:52;;;;;;;;;;;;;;;23.85;64.83;101597.81;7399466;19;1901;-39
2022/09/05 12:29:22;;;;;;;;;;;;;;;23.81;64.94;101598.13;7399175;19;1849;-38
2022/09/05 12:31:52;;;;;;;;;;;;;;;23.82;64.63;101602.50;7401187;19;1040;-38
2022/09/05 12:34:39;;;;;;;;;;;;;;;23.83;64.74;101608.75;7396965;19;1869;-38
2022/09/05 12:37:12;;;;;;;;;;;;;;;23.83;64.98;101595.25;7399231;19;1974;-38
2022/09/05 12:39:44;;;;;;;;;;;;;;;23.85;64.85;101603.19;7400088;19;1672;-38
2022/09/05 12:42:21;;;;;;;;;;;;;;;23.85;64.88;101584.28;7399374;19;993;-38
2022/09/05 12:44:54;;;;;;;;;;;;;;;23.84;64.82;101596.13;7400028;19;1959;-38
2022/09/05 12:47:24;;;;;;;;;;;;;;;23.83;64.82;101589.84;7406353;19;1727;-38
2022/09/05 12:49:59;;;;;;;;;;;;;;;23.80;64.86;101577.50;7407250;19;1785;-38
2022/09/05 12:52:36;;;;;;;;;;;;;;;23.86;65.02;101588.72;7407394;19;942;-38
2022/09/05 12:55:08;;;;;;;;;;;;;;;23.86;64.88;101594.13;7403598;19;2031;-38
2022/09/05 12:57:42;;;;;;;;;;;;;;;23.87;65.05;101587.69;7404238;19;1765;-38
2022/09/05 13:00:13;;;;;;;;;;;;;;;23.84;64.90;101586.16;7406281;19;1045;-37
2022/09/05 13:02:44;;;;;;;;;;;;;;;23.84;64.83;101580.75;7405066;19;1662;-38
2022/09/05 13:05:14;;;;;;;;;;;;;;;23.85;64.92;101597.81;7406343;19;1966;-38
2022/09/05 13:07:44;;;;;;;;;;;;;;;23.83;64.75;101579.03;7406176;19;1803;-38
2022/09/05 13:10:20;;;;;;;;;;;;;;;23.86;65.05;101596.81;7406627;19;1763;-38
2022/09/05 13:12:53;;;;;;;;;;;;;;;23.85;64.92;101582.44;7407054;19;2221;-38
2022/09/05 13:15:25;;;;;;;;;;;;;;;23.87;64.91;101590.41;7403150;19;1881;-38
2022/09/05 13:17:58;;;;;;;;;;;;;;;23.81;64.85;101571.09;7407100;19;926;-38
2022/09/05 13:20:32;;;;;;;;;;;;;;;23.86;64.76;101577.91;7406721;19;1738;-37
2022/09/05 13:23:03;;;;;;;;;;;;;;;23.87;64.84;101577.75;7403514;19;1900;-37
2022/09/05 13:25:33;;;;;;;;;;;;;;;23.84;64.93;101579.91;7405739;19;1671;-38
2022/09/05 13:28:05;;;;;;;;;;;;;;;23.84;64.89;101582.63;7406701;19;1750;-38
2022/09/05 13:30:36;;;;;;;;;;;;;;;23.85;65.00;101582.44;7406062;19;1754;-38
2022/09/05 13:33:05;;;;;;;;;;;;;;;23.82;64.83;101588.16;7407280;19;1854;-38
2022/09/05 13:35:36;;;;;;;;;;;;;;;23.90;64.98;101579.31;7406697;19;1024;-37